Decoded Metar for KLCH (LAKE CHARLES in LA, USA) (IATA:LCH) | Meteo·Mobile Aviation Weather
aviador You're here:

KLCH Decoded Metar

LAKE CHARLES in LA, USA
Report Time2019-01-18 12:53:00
UTC Time2019-01-18 13:21:08
Flight Rules lifr LIFR
WindCalm
Visibility402 m
Phenomena:Light Rain
Fog
Clouds:N/A
Ceiling200 ft
Temp13°C (ISA -2)
Dew Point13°C (100% RH)
QNH1019 hPa
Density Alt-226 ft
Elevation13 ft
Report Wrong Elevation
Raw Report
KLCH 181253Z 00000KT 1/4SM -RA FG VV002 13/13 A3008 RMK AO2 RAB24
SLP194 P0000 T01330133=

Extra information for KLCH:More info

Metar Taf Metar & Taf Last 4 Metars F.Rules Stats Wind Profile Meteogram Temp Stats Airport Information Weather charts Add Link Nearby VenuesMetar ALERT Operation Metar Decoded Social comments

AIRNAV info for KLCH